createdAt,value
2023-04-09T00:00:00.363Z,8.90
2023-04-09T00:02:27.711Z,8.90
2023-04-09T00:04:54.627Z,8.90
2023-04-09T00:07:21.505Z,8.90
2023-04-09T00:09:48.294Z,8.90
2023-04-09T00:12:15.548Z,9.00
2023-04-09T00:14:42.375Z,9.00
2023-04-09T00:17:09.711Z,9.00
2023-04-09T00:19:36.869Z,9.00
2023-04-09T00:22:03.920Z,9.00
2023-04-09T00:24:30.714Z,9.00
2023-04-09T00:26:57.561Z,9.00
2023-04-09T00:29:24.422Z,9.10
2023-04-09T00:31:51.435Z,9.20
2023-04-09T00:34:18.270Z,9.20
2023-04-09T00:36:45.455Z,9.10
2023-04-09T00:39:12.321Z,9.10
2023-04-09T00:41:39.210Z,9.00
2023-04-09T00:44:06.093Z,9.30
2023-04-09T00:46:32.998Z,9.10
2023-04-09T00:48:59.891Z,9.10
2023-04-09T00:51:26.973Z,9.00
2023-04-09T00:53:54.637Z,8.90
2023-04-09T00:56:23.684Z,8.80
2023-04-09T00:58:50.800Z,8.90
2023-04-09T01:01:18.162Z,8.70
2023-04-09T01:03:45.470Z,8.80
2023-04-09T01:06:27.101Z,8.80
2023-04-09T01:09:21.200Z,8.70
2023-04-09T01:12:11.544Z,8.60
2023-04-09T01:14:52.457Z,8.70
2023-04-09T01:17:25.800Z,8.50
2023-04-09T01:20:08.277Z,8.40
2023-04-09T01:23:12.766Z,8.40
2023-04-09T01:25:53.834Z,8.50
2023-04-09T01:28:39.346Z,8.40
2023-04-09T01:31:17.432Z,8.30
2023-04-09T01:33:45.605Z,8.20
2023-04-09T01:36:13.570Z,8.20
2023-04-09T01:38:42.961Z,8.00
2023-04-09T01:41:17.307Z,8.00
2023-04-09T01:43:45.646Z,8.00
2023-04-09T01:46:13.635Z,8.00
2023-04-09T01:48:40.854Z,8.00
2023-04-09T01:51:07.836Z,8.00
2023-04-09T01:53:34.719Z,8.00
2023-04-09T01:56:02.049Z,7.90
2023-04-09T01:58:29.005Z,7.90
2023-04-09T02:01:16.882Z,7.90
2023-04-09T02:03:55.403Z,8.00
2023-04-09T02:06:28.345Z,7.90
2023-04-09T02:08:57.802Z,7.90
2023-04-09T02:11:28.958Z,7.90
2023-04-09T02:13:57.748Z,7.90
2023-04-09T02:16:27.481Z,7.80
2023-04-09T02:18:58.307Z,7.80
2023-04-09T02:21:27.046Z,7.70
2023-04-09T02:23:54.165Z,7.70
2023-04-09T02:26:21.409Z,7.70
2023-04-09T02:28:48.174Z,7.60
2023-04-09T02:31:15.671Z,7.60
2023-04-09T02:33:42.613Z,7.60
2023-04-09T02:36:13.537Z,7.60
2023-04-09T02:38:43.693Z,7.50
2023-04-09T02:41:10.880Z,7.60
2023-04-09T02:43:38.122Z,7.50
2023-04-09T02:46:05.291Z,7.50
2023-04-09T02:48:32.734Z,7.50
2023-04-09T02:50:59.626Z,7.60
2023-04-09T02:53:27.081Z,7.60
2023-04-09T02:55:53.952Z,7.70
2023-04-09T02:58:20.842Z,7.60
2023-04-09T03:00:47.658Z,7.60
2023-04-09T03:03:14.726Z,7.50
2023-04-09T03:05:41.687Z,7.30
2023-04-09T03:08:08.639Z,7.30
2023-04-09T03:10:35.677Z,7.20
2023-04-09T03:13:02.525Z,7.20
2023-04-09T03:15:29.298Z,7.20
2023-04-09T03:17:56.583Z,7.20
2023-04-09T03:20:23.552Z,7.20
2023-04-09T03:22:50.385Z,7.40
2023-04-09T03:25:19.654Z,7.40
2023-04-09T03:27:47.017Z,7.50
2023-04-09T03:30:13.983Z,7.50
2023-04-09T03:32:41.038Z,7.40
2023-04-09T03:35:08.253Z,7.30
2023-04-09T03:37:35.123Z,7.30
2023-04-09T03:40:02.197Z,7.30
2023-04-09T03:42:29.405Z,7.30
2023-04-09T03:44:56.561Z,7.20
2023-04-09T03:47:23.638Z,7.20
2023-04-09T03:49:50.662Z,7.30
2023-04-09T03:52:17.508Z,7.20
2023-04-09T03:54:44.556Z,7.20
2023-04-09T03:57:11.488Z,7.20
2023-04-09T03:59:38.403Z,7.20
2023-04-09T04:02:05.480Z,7.10
2023-04-09T04:04:32.643Z,7.00
2023-04-09T04:06:59.585Z,7.00
2023-04-09T04:09:26.664Z,6.90
2023-04-09T04:11:53.677Z,6.90
2023-04-09T04:14:20.796Z,6.90
2023-04-09T04:16:47.823Z,6.90
2023-04-09T04:19:14.679Z,6.90
2023-04-09T04:21:41.754Z,6.90
2023-04-09T04:24:08.763Z,6.90
2023-04-09T04:26:35.950Z,7.00
2023-04-09T04:29:03.506Z,7.00
2023-04-09T04:31:30.538Z,7.00
2023-04-09T04:33:57.344Z,6.90
2023-04-09T04:36:24.178Z,6.90
2023-04-09T04:38:51.113Z,6.70
2023-04-09T04:41:18.263Z,6.70
2023-04-09T04:43:47.274Z,6.70
2023-04-09T04:46:14.291Z,6.70
2023-04-09T04:48:41.146Z,6.70
2023-04-09T04:51:08.007Z,6.60
2023-04-09T04:53:34.797Z,6.60
2023-04-09T04:56:01.837Z,6.50
2023-04-09T04:58:30.475Z,6.40
2023-04-09T05:00:57.293Z,6.40
2023-04-09T05:03:26.130Z,6.60
2023-04-09T05:05:54.336Z,6.60
2023-04-09T05:08:21.298Z,6.60
2023-04-09T05:10:48.248Z,6.40
2023-04-09T05:13:15.600Z,6.40
2023-04-09T05:15:42.566Z,6.50
2023-04-09T05:18:10.760Z,6.50
2023-04-09T05:20:37.580Z,6.40
2023-04-09T05:23:04.517Z,6.40
2023-04-09T05:25:31.586Z,6.30
2023-04-09T05:27:58.730Z,6.40
2023-04-09T05:30:25.864Z,6.40
2023-04-09T05:32:52.844Z,6.30
2023-04-09T05:35:19.742Z,6.30
2023-04-09T05:37:46.524Z,6.20
2023-04-09T05:40:13.884Z,6.20
2023-04-09T05:42:41.120Z,6.20
2023-04-09T05:45:08.711Z,6.20
2023-04-09T05:47:35.768Z,6.30
2023-04-09T05:50:03.390Z,6.40
2023-04-09T05:52:30.493Z,6.40
2023-04-09T05:54:57.606Z,6.50
2023-04-09T05:57:24.712Z,6.60
2023-04-09T05:59:51.788Z,6.60
2023-04-09T06:02:18.855Z,6.70
2023-04-09T06:04:46.124Z,6.70
2023-04-09T06:07:13.152Z,6.80
2023-04-09T06:09:39.945Z,6.90
2023-04-09T06:12:06.750Z,7.00
2023-04-09T06:14:33.668Z,7.10
2023-04-09T06:17:01.813Z,7.10
2023-04-09T06:19:29.078Z,7.10
2023-04-09T06:21:55.995Z,7.00
2023-04-09T06:24:23.192Z,7.10
2023-04-09T06:26:50.264Z,7.20
2023-04-09T06:29:17.116Z,7.40
2023-04-09T06:31:44.170Z,7.40
2023-04-09T06:34:11.432Z,7.50
2023-04-09T06:36:40.442Z,7.60
2023-04-09T06:39:07.567Z,7.60
2023-04-09T06:41:34.705Z,7.60
2023-04-09T06:44:01.803Z,7.60
2023-04-09T06:46:29.097Z,7.60
2023-04-09T06:48:56.155Z,7.70
2023-04-09T06:51:23.182Z,7.80
2023-04-09T06:53:50.461Z,7.90
2023-04-09T06:56:17.699Z,8.20
2023-04-09T06:58:44.735Z,8.30
2023-04-09T07:01:13.593Z,8.40
2023-04-09T07:03:40.906Z,8.40
2023-04-09T07:06:08.055Z,8.60
2023-04-09T07:08:35.510Z,8.60
2023-04-09T07:11:06.516Z,8.80
2023-04-09T07:13:33.705Z,8.80
2023-04-09T07:16:00.758Z,8.90
2023-04-09T07:18:28.879Z,8.90
2023-04-09T07:20:55.967Z,9.10
2023-04-09T07:23:23.077Z,9.10
2023-04-09T07:25:50.217Z,9.30
2023-04-09T07:28:17.189Z,9.50
2023-04-09T07:30:44.150Z,9.70
2023-04-09T07:33:11.118Z,9.80
2023-04-09T07:35:38.141Z,9.80
2023-04-09T07:38:05.047Z,9.90
2023-04-09T07:40:34.303Z,9.90
2023-04-09T07:43:01.163Z,10.00
2023-04-09T07:45:28.120Z,10.10
2023-04-09T07:47:55.094Z,10.30
2023-04-09T07:50:22.639Z,10.50
2023-04-09T07:52:49.582Z,10.50
2023-04-09T07:55:18.521Z,10.50
2023-04-09T07:57:45.624Z,10.70
2023-04-09T08:00:12.882Z,10.80
2023-04-09T08:02:40.021Z,11.20
2023-04-09T08:05:08.036Z,11.40
2023-04-09T08:07:35.191Z,11.50
2023-04-09T08:10:02.207Z,11.30
2023-04-09T08:12:29.328Z,11.30
2023-04-09T08:14:56.408Z,11.50
2023-04-09T08:17:23.411Z,11.70
2023-04-09T08:19:50.411Z,11.70
2023-04-09T08:22:17.279Z,11.90
2023-04-09T08:24:44.340Z,12.10
2023-04-09T08:27:11.435Z,12.10
2023-04-09T08:29:40.548Z,12.50
2023-04-09T08:32:08.206Z,12.80
2023-04-09T08:34:35.115Z,12.90
2023-04-09T08:37:02.489Z,13.10
2023-04-09T08:39:29.401Z,13.00
2023-04-09T08:42:02.492Z,13.20
2023-04-09T08:44:30.636Z,13.40
2023-04-09T08:46:59.702Z,13.50
2023-04-09T08:49:26.702Z,14.00
2023-04-09T08:51:53.757Z,14.00
2023-04-09T08:54:20.920Z,13.90
2023-04-09T08:56:47.871Z,13.90
2023-04-09T08:59:18.656Z,14.20
2023-04-09T09:01:48.070Z,14.40
2023-04-09T09:04:15.591Z,14.30
2023-04-09T09:06:42.624Z,14.60
2023-04-09T09:09:13.719Z,14.70
2023-04-09T09:11:50.327Z,15.10
2023-04-09T09:14:19.051Z,15.30
2023-04-09T09:16:58.786Z,15.50
2023-04-09T09:19:26.172Z,15.20
2023-04-09T09:22:03.507Z,15.40
2023-04-09T09:24:32.663Z,15.80
2023-04-09T09:26:59.785Z,16.20
2023-04-09T09:29:28.195Z,16.50
2023-04-09T09:31:56.379Z,16.60
2023-04-09T09:34:25.010Z,16.60
2023-04-09T09:36:52.073Z,16.70
2023-04-09T09:39:19.236Z,16.90
2023-04-09T09:41:47.405Z,16.80
2023-04-09T09:44:32.142Z,17.10
2023-04-09T09:46:59.545Z,16.80
2023-04-09T09:49:26.722Z,16.90
2023-04-09T09:51:56.400Z,17.10
2023-04-09T09:54:25.726Z,17.10
2023-04-09T09:56:55.815Z,17.20
2023-04-09T09:59:32.470Z,17.50
2023-04-09T10:02:06.124Z,17.60
2023-04-09T10:04:36.805Z,17.40
2023-04-09T10:07:07.744Z,17.60
2023-04-09T10:09:37.258Z,17.70
2023-04-09T10:12:08.570Z,17.40
2023-04-09T10:14:36.464Z,17.60
2023-04-09T10:17:05.282Z,18.00
2023-04-09T10:19:38.239Z,18.60
2023-04-09T10:22:12.821Z,18.80
2023-04-09T10:24:40.936Z,19.00
2023-04-09T10:27:17.207Z,18.90
2023-04-09T10:29:46.746Z,19.20
2023-04-09T10:32:21.836Z,19.30
2023-04-09T10:34:50.723Z,18.50
2023-04-09T10:37:23.704Z,18.40
2023-04-09T10:39:52.582Z,18.70
2023-04-09T10:42:22.848Z,18.60
2023-04-09T10:45:11.758Z,18.30
2023-04-09T10:47:41.579Z,18.00
2023-04-09T10:50:14.674Z,18.30
2023-04-09T10:52:42.460Z,18.60
2023-04-09T10:55:09.354Z,18.70
2023-04-09T10:57:36.459Z,19.10
2023-04-09T11:00:03.446Z,18.90
2023-04-09T11:02:56.165Z,18.90
2023-04-09T11:05:32.852Z,19.30
2023-04-09T11:08:09.537Z,19.70
2023-04-09T11:10:42.456Z,19.20
2023-04-09T11:13:13.831Z,19.30
2023-04-09T11:15:41.248Z,19.60
2023-04-09T11:18:14.214Z,19.40
2023-04-09T11:20:41.495Z,19.60
2023-04-09T11:23:08.630Z,19.70
2023-04-09T11:25:35.740Z,20.30
2023-04-09T11:28:08.124Z,19.90
2023-04-09T11:30:36.201Z,19.70
2023-04-09T11:33:03.592Z,19.60
2023-04-09T11:35:30.641Z,19.50
2023-04-09T11:37:57.608Z,20.10
2023-04-09T11:40:26.410Z,20.50
2023-04-09T11:42:55.263Z,20.40
2023-04-09T11:45:27.697Z,20.70
2023-04-09T11:47:55.080Z,20.20
2023-04-09T11:50:22.258Z,20.40
2023-04-09T11:52:49.931Z,20.30
2023-04-09T11:55:28.282Z,20.30
2023-04-09T11:58:00.973Z,20.20
2023-04-09T12:00:29.124Z,20.50
2023-04-09T12:03:02.861Z,20.60
2023-04-09T12:05:32.506Z,19.80
2023-04-09T12:08:01.823Z,20.90
2023-04-09T12:10:30.055Z,20.50
2023-04-09T12:13:02.895Z,20.50
2023-04-09T12:15:36.997Z,20.80
2023-04-09T12:18:08.137Z,21.20
2023-04-09T12:20:36.259Z,21.60
2023-04-09T12:23:05.761Z,21.80
2023-04-09T12:25:41.812Z,21.90
2023-04-09T12:28:11.428Z,21.70
2023-04-09T12:30:38.596Z,21.70
2023-04-09T12:33:07.183Z,21.40
2023-04-09T12:35:38.261Z,21.60
2023-04-09T12:38:05.841Z,21.50
2023-04-09T12:40:32.943Z,21.70
2023-04-09T12:43:00.152Z,21.70
2023-04-09T12:45:28.054Z,21.70
2023-04-09T12:47:55.056Z,21.80
2023-04-09T12:50:22.127Z,21.20
2023-04-09T12:52:49.175Z,21.00
2023-04-09T12:55:16.787Z,21.20
2023-04-09T12:57:47.253Z,21.70
2023-04-09T13:00:15.095Z,22.60
2023-04-09T13:02:42.347Z,23.30
2023-04-09T13:05:09.774Z,23.20
2023-04-09T13:07:36.860Z,23.20
2023-04-09T13:10:03.837Z,23.30
2023-04-09T13:12:30.905Z,22.60
2023-04-09T13:14:59.196Z,22.60
2023-04-09T13:17:27.256Z,22.60
2023-04-09T13:19:54.382Z,22.70
2023-04-09T13:22:21.272Z,22.80
2023-04-09T13:24:48.547Z,23.70
2023-04-09T13:27:16.533Z,24.20
2023-04-09T13:29:43.502Z,23.80
2023-04-09T13:32:11.298Z,23.60
2023-04-09T13:34:39.522Z,23.60
2023-04-09T13:37:07.175Z,23.20
2023-04-09T13:39:34.155Z,22.40
2023-04-09T13:42:05.434Z,22.50
2023-04-09T13:44:42.321Z,22.10
2023-04-09T13:47:11.409Z,22.30
2023-04-09T13:49:38.965Z,22.10
2023-04-09T13:52:06.506Z,21.70
2023-04-09T13:54:34.407Z,21.90
2023-04-09T13:57:01.597Z,21.80
2023-04-09T13:59:28.698Z,21.70
2023-04-09T14:01:56.483Z,21.60
2023-04-09T14:04:23.744Z,21.00
2023-04-09T14:06:50.745Z,20.50
2023-04-09T14:09:17.655Z,20.50
2023-04-09T14:11:44.443Z,20.20
2023-04-09T14:14:11.291Z,20.10
2023-04-09T14:16:38.355Z,20.10
2023-04-09T14:19:06.623Z,20.30
2023-04-09T14:21:34.330Z,20.30
2023-04-09T14:24:01.669Z,20.70
2023-04-09T14:26:29.260Z,20.60
2023-04-09T14:28:56.328Z,20.50
2023-04-09T14:31:23.688Z,20.70
2023-04-09T14:33:50.809Z,20.50
2023-04-09T14:36:18.123Z,20.60
2023-04-09T14:38:45.059Z,20.40
2023-04-09T14:41:12.343Z,20.70
2023-04-09T14:43:39.774Z,21.00
2023-04-09T14:46:07.162Z,21.40
2023-04-09T14:48:34.310Z,21.80
2023-04-09T14:51:01.134Z,21.90
2023-04-09T14:53:27.949Z,22.00
2023-04-09T14:55:54.881Z,22.10
2023-04-09T14:58:22.180Z,21.80
2023-04-09T15:00:49.017Z,21.60
2023-04-09T15:03:16.053Z,21.80
2023-04-09T15:05:43.124Z,21.40
2023-04-09T15:08:10.158Z,21.50
2023-04-09T15:10:37.356Z,21.60
2023-04-09T15:13:04.432Z,21.50
2023-04-09T15:15:31.471Z,21.10
2023-04-09T15:18:00.350Z,21.20
2023-04-09T15:20:27.435Z,21.00
2023-04-09T15:22:54.485Z,21.30
2023-04-09T15:25:21.473Z,21.40
2023-04-09T15:27:50.476Z,21.70
2023-04-09T15:30:17.355Z,21.70
2023-04-09T15:32:44.363Z,21.90
2023-04-09T15:35:11.374Z,21.90
2023-04-09T15:37:38.213Z,22.30
2023-04-09T15:40:05.415Z,22.40
2023-04-09T15:42:32.318Z,22.00
2023-04-09T15:44:59.169Z,22.00
2023-04-09T15:47:26.107Z,21.80
2023-04-09T15:49:53.095Z,21.80
2023-04-09T15:52:20.073Z,22.20
2023-04-09T15:54:46.940Z,22.10
2023-04-09T15:57:14.451Z,22.00
2023-04-09T15:59:41.408Z,21.30
2023-04-09T16:02:08.417Z,21.10
2023-04-09T16:04:35.445Z,20.50
2023-04-09T16:07:04.244Z,20.30
2023-04-09T16:09:31.334Z,20.20
2023-04-09T16:11:58.229Z,20.20
2023-04-09T16:14:25.160Z,20.40
2023-04-09T16:16:53.908Z,20.10
2023-04-09T16:19:21.445Z,20.20
2023-04-09T16:21:49.223Z,20.10
2023-04-09T16:24:16.184Z,20.20
2023-04-09T16:26:44.453Z,20.30
2023-04-09T16:29:12.030Z,20.10
2023-04-09T16:31:41.873Z,20.00
2023-04-09T16:34:08.999Z,19.90
2023-04-09T16:36:37.191Z,19.60
2023-04-09T16:39:05.217Z,19.50
2023-04-09T16:41:34.358Z,19.60
2023-04-09T16:44:03.006Z,19.60
2023-04-09T16:46:30.111Z,19.60
2023-04-09T16:48:57.178Z,19.20
2023-04-09T16:51:24.275Z,18.90
2023-04-09T16:53:51.163Z,18.70
2023-04-09T16:56:18.248Z,18.90
2023-04-09T16:58:46.590Z,18.70
2023-04-09T17:01:13.425Z,18.70
2023-04-09T17:03:40.370Z,18.60
2023-04-09T17:06:07.372Z,18.60
2023-04-09T17:08:35.380Z,18.60
2023-04-09T17:11:02.465Z,18.60
2023-04-09T17:13:32.536Z,18.70
2023-04-09T17:16:00.569Z,18.90
2023-04-09T17:18:27.875Z,18.80
2023-04-09T17:20:54.801Z,18.80
2023-04-09T17:23:23.189Z,18.70
2023-04-09T17:25:50.097Z,18.60
2023-04-09T17:28:18.816Z,18.40
2023-04-09T17:30:46.367Z,18.40
2023-04-09T17:33:13.447Z,18.40
2023-04-09T17:35:41.759Z,18.30
2023-04-09T17:38:08.871Z,18.20
2023-04-09T17:40:35.966Z,18.10
2023-04-09T17:43:02.762Z,18.00
2023-04-09T17:45:29.612Z,18.00
2023-04-09T17:47:57.264Z,17.90
2023-04-09T17:50:24.456Z,17.80
2023-04-09T17:52:51.347Z,17.70
2023-04-09T17:55:18.307Z,17.70
2023-04-09T17:57:45.176Z,17.50
2023-04-09T18:00:12.800Z,17.50
2023-04-09T18:02:40.144Z,17.40
2023-04-09T18:05:07.709Z,17.30
2023-04-09T18:07:35.087Z,17.30
2023-04-09T18:10:03.198Z,17.20
2023-04-09T18:12:30.206Z,17.20
2023-04-09T18:14:57.143Z,17.20
2023-04-09T18:17:26.410Z,17.00
2023-04-09T18:19:58.448Z,17.10
2023-04-09T18:22:27.627Z,17.00
2023-04-09T18:24:54.787Z,16.90
2023-04-09T18:27:21.788Z,17.00
2023-04-09T18:29:51.785Z,16.90
2023-04-09T18:32:19.688Z,16.90
2023-04-09T18:34:47.789Z,16.70
2023-04-09T18:37:15.566Z,16.70
2023-04-09T18:39:42.648Z,16.60
2023-04-09T18:42:09.642Z,16.60
2023-04-09T18:44:37.673Z,16.40
2023-04-09T18:47:06.021Z,16.30
2023-04-09T18:49:33.806Z,16.20
2023-04-09T18:52:02.187Z,16.10
2023-04-09T18:54:29.153Z,16.00
2023-04-09T18:56:57.514Z,16.00
2023-04-09T18:59:24.611Z,15.90
2023-04-09T19:01:51.934Z,15.80
2023-04-09T19:04:19.145Z,15.70
2023-04-09T19:06:49.853Z,15.60
2023-04-09T19:09:16.845Z,15.50
2023-04-09T19:11:43.852Z,15.40
2023-04-09T19:14:11.174Z,15.30
2023-04-09T19:16:38.527Z,15.30
2023-04-09T19:19:06.497Z,15.10
2023-04-09T19:21:33.714Z,15.10
2023-04-09T19:24:00.978Z,15.20
2023-04-09T19:26:28.095Z,15.20
2023-04-09T19:28:55.469Z,15.20
2023-04-09T19:31:22.796Z,15.20
2023-04-09T19:33:49.592Z,15.20
2023-04-09T19:36:16.505Z,15.20
2023-04-09T19:38:43.389Z,15.20
2023-04-09T19:41:10.549Z,15.20
2023-04-09T19:43:39.201Z,15.00
2023-04-09T19:46:08.511Z,15.10
2023-04-09T19:48:37.137Z,15.00
2023-04-09T19:51:04.609Z,15.00
2023-04-09T19:53:32.838Z,15.10
2023-04-09T19:55:59.975Z,14.90
2023-04-09T19:58:27.314Z,15.00
2023-04-09T20:00:54.955Z,15.10
2023-04-09T20:03:22.472Z,15.00
2023-04-09T20:05:49.559Z,15.00
2023-04-09T20:08:16.687Z,15.20
2023-04-09T20:10:46.459Z,15.10
2023-04-09T20:13:13.963Z,14.80
2023-04-09T20:15:40.864Z,14.80
2023-04-09T20:18:08.126Z,14.90
2023-04-09T20:20:35.332Z,15.00
2023-04-09T20:23:02.155Z,14.80
2023-04-09T20:25:34.412Z,14.60
2023-04-09T20:28:02.482Z,14.70
2023-04-09T20:30:34.336Z,14.80
2023-04-09T20:33:01.482Z,14.80
2023-04-09T20:35:28.618Z,14.80
2023-04-09T20:37:55.728Z,14.80
2023-04-09T20:40:22.962Z,14.80
2023-04-09T20:42:49.949Z,14.60
2023-04-09T20:45:17.012Z,14.60
2023-04-09T20:47:44.196Z,14.60
2023-04-09T20:50:11.491Z,14.50
2023-04-09T20:52:38.761Z,14.40
2023-04-09T20:55:06.653Z,14.40
2023-04-09T20:57:33.830Z,14.40
2023-04-09T21:00:00.939Z,14.30
2023-04-09T21:02:28.230Z,14.10
2023-04-09T21:05:00.035Z,14.00
2023-04-09T21:07:30.263Z,14.00
2023-04-09T21:09:57.176Z,14.00
2023-04-09T21:12:24.085Z,13.90
2023-04-09T21:14:51.159Z,13.80
2023-04-09T21:17:18.012Z,13.80
2023-04-09T21:19:44.919Z,13.80
2023-04-09T21:22:11.727Z,13.80
2023-04-09T21:24:38.628Z,13.70
2023-04-09T21:27:07.675Z,13.70
2023-04-09T21:29:37.458Z,13.70
2023-04-09T21:32:04.397Z,13.80
2023-04-09T21:34:31.647Z,13.80
2023-04-09T21:36:58.861Z,13.80
2023-04-09T21:39:25.985Z,13.70
2023-04-09T21:41:53.011Z,13.60
2023-04-09T21:44:20.653Z,13.50
2023-04-09T21:46:47.925Z,13.60
2023-04-09T21:49:14.838Z,13.60
2023-04-09T21:51:42.375Z,13.60
2023-04-09T21:54:12.367Z,13.70
2023-04-09T21:56:39.524Z,13.60
2023-04-09T21:59:06.744Z,13.50
2023-04-09T22:01:35.121Z,13.40
2023-04-09T22:04:02.454Z,13.30
2023-04-09T22:06:29.817Z,13.30
2023-04-09T22:08:58.186Z,13.30
2023-04-09T22:11:27.840Z,13.30
2023-04-09T22:13:57.338Z,13.40
2023-04-09T22:16:25.482Z,13.30
2023-04-09T22:18:54.177Z,13.40
2023-04-09T22:21:21.647Z,13.40
2023-04-09T22:23:48.760Z,13.30
2023-04-09T22:26:15.972Z,13.30
2023-04-09T22:28:42.878Z,13.10
2023-04-09T22:31:09.818Z,13.10
2023-04-09T22:33:36.751Z,13.00
2023-04-09T22:36:04.212Z,13.10
2023-04-09T22:38:31.274Z,13.20
2023-04-09T22:40:58.113Z,13.10
2023-04-09T22:43:25.118Z,13.20
2023-04-09T22:45:54.163Z,13.10
2023-04-09T22:48:22.126Z,13.10
2023-04-09T22:50:50.026Z,13.00
2023-04-09T22:53:20.860Z,12.90
2023-04-09T22:55:52.723Z,13.00
2023-04-09T22:58:20.065Z,13.10
2023-04-09T23:00:47.582Z,13.20
2023-04-09T23:03:14.811Z,13.10
2023-04-09T23:05:42.104Z,13.10
2023-04-09T23:08:09.642Z,13.10
2023-04-09T23:10:36.715Z,13.10
2023-04-09T23:13:03.647Z,13.10
2023-04-09T23:15:30.883Z,13.20
2023-04-09T23:17:58.130Z,13.30
2023-04-09T23:20:27.154Z,13.30
2023-04-09T23:22:54.118Z,13.40
2023-04-09T23:25:22.558Z,13.30
2023-04-09T23:27:49.471Z,13.40
2023-04-09T23:30:17.124Z,13.50
2023-04-09T23:32:54.171Z,13.40
2023-04-09T23:35:22.652Z,13.40
2023-04-09T23:37:50.166Z,13.40
2023-04-09T23:40:20.162Z,13.40
2023-04-09T23:42:48.106Z,13.40
2023-04-09T23:45:15.030Z,13.30
2023-04-09T23:47:42.504Z,13.20
2023-04-09T23:50:09.737Z,13.10
2023-04-09T23:52:38.317Z,13.10
2023-04-09T23:55:09.668Z,13.10
2023-04-09T23:57:36.639Z,13.10
